»·PEaware :: FFT2313 KMFR-KBFI

FFT2313 :: KMFR-KBFI

FLIGHT INFORMATION

Flight Status: Arrived
Operator:
Frontier Airlines
More flights by this operator :: More flights under this callsign
Pilot: Walter P. (10403)
Aircraft: BOEING 737-200
(B732)
More flights by this aircraft type
Origin: KMFR Rogue Valley Intl-Medford
United States
Destination: KBFI Boeing Field/King Co Intl
United States
More flights between these airports :: More routes between these airports
Route: +JKSN1 OED J1 BTG OLM2
File this flight plan on PilotEdge
Remarks:
Altitude:
(Current/Filed)
30,000ft
Speed:
(Current/Filed)
440kts
Departed: 10-Oct-18 04:54 PM
Arrived: 10-Oct-18 06:01 PM
Distance/Time
Traveled:
311nm/1:06
Distance/Time
To Go:
Arrived

Flight Plot

Page will automatically refresh every two minutes.

Flight plan parsing failed; only flown route is shown


Map Options




Map Legend


Flown Route
Filed Route
Departure Airport
Arrival Airport
Navaid (VOR, NDB)
Fix

Horizontal Profiles

Position Reports

Time Latitude Longitude Heading Altitude Ground
Speed
10-Oct-18 16:32 42.368734 -122.873380 248 1320ft 0kts
10-Oct-18 16:33 42.368734 -122.873380 248 1320ft 0kts
10-Oct-18 16:34 42.368734 -122.873380 248 1320ft 0kts
10-Oct-18 16:35 42.368734 -122.873380 248 1320ft 0kts
10-Oct-18 16:36 42.368734 -122.873380 248 1320ft 0kts
10-Oct-18 16:37 42.368734 -122.873380 248 1320ft 0kts
10-Oct-18 16:38 42.368734 -122.873380 248 1320ft 0kts
10-Oct-18 16:39 42.368734 -122.873380 248 1320ft 0kts
10-Oct-18 16:40 42.368734 -122.873380 248 1320ft 0kts
10-Oct-18 16:41 42.368734 -122.873380 248 1320ft 0kts
10-Oct-18 16:42 42.368734 -122.873380 248 1320ft 0kts
10-Oct-18 16:43 42.368734 -122.873380 248 1320ft 0kts
10-Oct-18 16:44 42.368734 -122.873380 248 1320ft 0kts
10-Oct-18 16:45 42.368734 -122.873380 248 1320ft 0kts
10-Oct-18 16:46 42.368734 -122.873380 248 1320ft 0kts
10-Oct-18 16:47 42.368818 -122.872713 277 1320ft 2kts
10-Oct-18 16:48 42.368745 -122.872370 293 1320ft 0kts
10-Oct-18 16:49 42.368745 -122.872370 293 1320ft 0kts
10-Oct-18 16:50 42.368745 -122.872370 293 1320ft 0kts
10-Oct-18 16:51 42.368745 -122.872370 293 1320ft 0kts
10-Oct-18 16:52 42.368745 -122.872371 293 1320ft 0kts
10-Oct-18 16:53 42.368839 -122.872099 106 1320ft 6kts
10-Oct-18 16:54 42.364087 -122.869140 157 1329ft 22kts
10-Oct-18 16:55 42.363693 -122.868027 68 1330ft 13kts
10-Oct-18 16:56 42.376887 -122.874302 337 1316ft 149kts
10-Oct-18 16:57 42.423195 -122.897808 338 3969ft 195kts
10-Oct-18 16:58 42.474532 -122.911996 348 6726ft 202kts
10-Oct-18 16:59 42.532168 -122.916775 359 8912ft 230kts
10-Oct-18 17:00 42.604549 -122.908387 5 10789ft 280kts
10-Oct-18 17:01 42.689584 -122.898749 5 12817ft 316kts
10-Oct-18 17:02 42.781077 -122.892092 5 14664ft 345kts
10-Oct-18 17:03 42.875655 -122.877374 5 17280ft 339kts
10-Oct-18 17:04 42.968002 -122.862156 4 19454ft 337kts
10-Oct-18 17:05 43.062248 -122.856290 2 21039ft 346kts
10-Oct-18 17:06 43.158350 -122.846624 6 22466ft 355kts
10-Oct-18 17:07 43.253960 -122.832516 3 23720ft 362kts
10-Oct-18 17:08 43.351923 -122.822247 2 25373ft 353kts
10-Oct-18 17:09 43.450181 -122.812939 2 26496ft 358kts
10-Oct-18 17:10 43.548332 -122.803817 1 27615ft 359kts
10-Oct-18 17:11 43.641469 -122.795192 1 28611ft 359kts
10-Oct-18 17:12 43.728166 -122.787159 1 29531ft 357kts
10-Oct-18 17:13 43.826712 -122.778018 1 30001ft 370kts
10-Oct-18 17:14 43.932166 -122.768163 1 30000ft 392kts
10-Oct-18 17:15 44.042489 -122.757792 1 29998ft 408kts
10-Oct-18 17:16 44.156839 -122.747089 1 29999ft 421kts
10-Oct-18 17:17 44.256148 -122.737751 1 30019ft 429kts
10-Oct-18 17:18 44.368889 -122.727034 1 30021ft 428kts
10-Oct-18 17:19 44.484157 -122.716003 1 29995ft 427kts
10-Oct-18 17:20 44.597291 -122.705117 1 29994ft 426kts
10-Oct-18 17:21 44.708722 -122.694345 1 29994ft 426kts
10-Oct-18 17:22 44.821246 -122.683417 1 29999ft 425kts
10-Oct-18 17:23 44.937343 -122.672084 1 30021ft 425kts
10-Oct-18 17:24 45.051804 -122.660860 1 30021ft 425kts
10-Oct-18 17:25 45.145821 -122.651865 1 30023ft 425kts
10-Oct-18 17:26 45.274400 -122.639511 1 30022ft 425kts
10-Oct-18 17:27 45.382049 -122.628934 1 30022ft 426kts
10-Oct-18 17:28 45.477511 -122.619490 1 30022ft 426kts
10-Oct-18 17:29 45.559467 -122.611354 1 30022ft 426kts
10-Oct-18 17:30 45.686946 -122.582649 16 30025ft 426kts
10-Oct-18 17:31 45.780425 -122.558520 359 30019ft 421kts
10-Oct-18 17:32 45.888834 -122.576287 352 30040ft 417kts
10-Oct-18 17:33 45.999643 -122.606460 349 30045ft 419kts
10-Oct-18 17:34 46.109590 -122.638981 349 28270ft 408kts
10-Oct-18 17:35 46.233055 -122.675252 349 25491ft 394kts
10-Oct-18 17:36 46.313376 -122.699865 349 23676ft 385kts
10-Oct-18 17:37 46.399536 -122.726151 349 21762ft 375kts
10-Oct-18 17:38 46.495071 -122.755293 348 19659ft 364kts
10-Oct-18 17:39 46.587043 -122.783390 348 17628ft 354kts
10-Oct-18 17:40 46.667017 -122.807966 348 15781ft 341kts
10-Oct-18 17:41 46.760903 -122.836867 348 13184ft 331kts
10-Oct-18 17:42 46.829070 -122.857936 348 12956ft 283kts
10-Oct-18 17:43 46.905680 -122.881556 348 12978ft 292kts
10-Oct-18 17:44 46.976871 -122.851703 33 12923ft 284kts
10-Oct-18 17:45 47.044380 -122.794748 43 11333ft 283kts
10-Oct-18 17:46 47.068925 -122.689571 75 9712ft 277kts
10-Oct-18 17:47 47.084193 -122.591816 75 7888ft 272kts
10-Oct-18 17:48 47.097701 -122.505464 75 6451ft 266kts
10-Oct-18 17:49 47.113940 -122.401644 75 5993ft 260kts
10-Oct-18 17:50 47.123243 -122.342195 76 5492ft 256kts
10-Oct-18 17:51 47.140317 -122.269609 56 4547ft 252kts
10-Oct-18 17:52 47.176880 -122.187336 56 3980ft 236kts
10-Oct-18 17:53 47.215057 -122.151406 7 3918ft 220kts
10-Oct-18 17:54 47.266750 -122.143357 6 2817ft 227kts
10-Oct-18 18:00 47.487255 -122.266345 330 778ft 146kts
10-Oct-18 18:01 47.514701 -122.289525 330 213ft 129kts
10-Oct-18 18:02 47.535286 -122.307015 331 22ft 43kts
10-Oct-18 18:03 47.539853 -122.312294 244 24ft 0kts
10-Oct-18 18:04 47.539797 -122.312465 244 23ft 6kts
10-Oct-18 18:05 47.539635 -122.316018 304 22ft 12kts
10-Oct-18 18:06 47.540037 -122.316293 359 22ft 0kts
10-Oct-18 18:07 47.540037 -122.316293 359 22ft 0kts

Navigation Log

Ident Type
Flight plan parsing failed, navigation log unavailable